createdAt,value
2018-05-09T00:48:25.048Z,47.65
2018-05-09T00:50:59.089Z,47.75
2018-05-09T00:53:32.344Z,47.72
2018-05-09T00:56:06.385Z,47.56
2018-05-09T00:58:39.644Z,47.72
2018-05-09T02:32:20.040Z,52.00
2018-05-09T02:34:54.088Z,51.94
2018-05-09T02:37:27.360Z,52.25
2018-05-09T02:40:00.614Z,52.40
2018-05-09T02:42:33.911Z,52.37
2018-05-09T02:45:07.177Z,52.80
2018-05-09T03:46:15.167Z,55.90
2018-05-09T03:48:48.432Z,55.77
2018-05-09T03:51:22.474Z,56.22
2018-05-09T03:53:57.454Z,56.34
2018-05-09T03:56:32.274Z,56.63
2018-05-09T03:59:05.594Z,56.48
2018-05-09T04:30:59.840Z,56.31
2018-05-09T04:33:33.098Z,56.29
2018-05-09T04:36:07.140Z,56.50
2018-05-09T04:38:40.400Z,56.73
2018-05-09T04:41:13.792Z,57.34
2018-05-09T04:43:47.049Z,57.17
2018-05-09T04:46:20.367Z,57.40
2018-05-09T04:48:53.625Z,57.62
2018-05-09T04:51:26.916Z,57.52
2018-05-09T04:54:00.151Z,57.83
2018-05-09T04:56:33.424Z,57.33
2018-05-09T04:59:06.685Z,57.32
2018-05-09T05:01:39.974Z,57.45
2018-05-09T05:04:13.223Z,57.63
2018-05-09T05:06:46.504Z,57.38
2018-05-09T05:09:19.770Z,57.03
2018-05-09T05:11:53.048Z,56.96
2018-05-09T05:14:26.325Z,57.19
2018-05-09T05:16:59.600Z,57.28
2018-05-09T05:19:32.856Z,57.59
2018-05-09T05:22:06.145Z,57.33
2018-05-09T05:24:39.388Z,57.42
2018-05-09T05:27:12.668Z,57.68
2018-05-09T05:29:45.927Z,57.62
2018-05-09T05:32:19.201Z,57.46
2018-05-09T05:34:52.700Z,57.41
2018-05-09T05:37:25.953Z,57.60
2018-05-09T05:39:59.339Z,57.62
2018-05-09T05:42:32.591Z,57.92
2018-05-09T05:45:06.121Z,57.68
2018-05-09T05:47:39.267Z,57.57
2018-05-09T05:50:12.631Z,57.76
2018-05-09T05:52:45.896Z,57.73
2018-05-09T05:55:19.172Z,57.87
2018-05-09T05:57:52.431Z,57.74
2018-05-09T06:00:25.815Z,57.60
2018-05-09T06:02:59.076Z,57.76
2018-05-09T06:05:32.339Z,57.83
2018-05-09T06:08:05.617Z,57.86
2018-05-09T06:10:38.884Z,57.82
2018-05-09T06:13:12.144Z,57.89
2018-05-09T06:15:45.415Z,57.91
2018-05-09T06:18:18.680Z,58.12
2018-05-09T06:20:52.733Z,57.71
2018-05-09T06:23:25.983Z,57.93
2018-05-09T06:25:59.260Z,57.80
2018-05-09T06:28:32.511Z,57.99
2018-05-09T07:03:28.343Z,56.51
2018-05-09T07:06:02.383Z,56.25
2018-05-09T07:08:35.636Z,56.03
2018-05-09T07:11:08.915Z,55.55
2018-05-09T07:13:42.166Z,55.43
2018-05-09T08:01:45.380Z,52.98
2018-05-09T08:04:18.653Z,52.82
2018-05-09T08:06:51.912Z,52.84
2018-05-09T08:09:25.198Z,52.30
2018-05-09T08:11:58.448Z,52.08
2018-05-09T08:14:31.713Z,52.62
2018-05-09T09:02:38.250Z,48.36
2018-05-09T09:05:11.520Z,48.42
2018-05-09T09:07:45.548Z,48.00
2018-05-09T09:10:19.587Z,47.73
2018-05-09T09:12:52.832Z,48.21
2018-05-09T10:00:56.360Z,44.29
2018-05-09T10:03:30.376Z,44.76
2018-05-09T10:06:03.655Z,44.68
2018-05-09T10:08:36.911Z,44.58
2018-05-09T10:11:10.192Z,43.67
2018-05-09T10:13:43.447Z,43.41
2018-05-09T11:01:46.188Z,39.08
2018-05-09T11:04:19.456Z,38.11
2018-05-09T11:06:52.720Z,36.79
2018-05-09T11:09:26.753Z,36.77
2018-05-09T11:12:00.013Z,35.79
2018-05-09T11:14:34.060Z,35.58
2018-05-09T12:02:38.542Z,34.19
2018-05-09T12:05:11.745Z,34.46
2018-05-09T12:07:45.015Z,34.53
2018-05-09T12:10:18.414Z,34.17
2018-05-09T12:12:51.640Z,33.82
2018-05-09T13:00:59.966Z,31.53
2018-05-09T13:03:33.245Z,30.98
2018-05-09T13:06:07.255Z,30.98
2018-05-09T13:08:41.300Z,31.49
2018-05-09T13:11:14.552Z,30.12
2018-05-09T13:13:47.850Z,30.92
2018-05-09T14:01:54.187Z,33.52
2018-05-09T14:04:28.239Z,33.61
2018-05-09T14:07:01.496Z,33.67
2018-05-09T14:09:34.763Z,33.11
2018-05-09T14:12:08.036Z,31.89
2018-05-09T14:14:41.313Z,31.88
2018-05-09T14:46:30.559Z,37.00
2018-05-09T14:49:03.812Z,37.25
2018-05-09T14:51:37.862Z,37.50
2018-05-09T14:54:11.132Z,37.61
2018-05-09T14:56:44.564Z,38.33
2018-05-09T14:59:17.820Z,38.75
2018-05-09T15:31:07.553Z,52.95
2018-05-09T15:33:40.825Z,47.46
2018-05-09T15:36:14.080Z,46.60
2018-05-09T15:38:47.486Z,46.54
2018-05-09T15:41:21.418Z,46.33
2018-05-09T15:43:55.563Z,45.47
2018-05-09T15:46:28.816Z,46.76
2018-05-09T15:49:02.855Z,43.54
2018-05-09T15:51:36.111Z,43.87
2018-05-09T15:54:09.388Z,43.65
2018-05-09T15:56:42.666Z,42.80
2018-05-09T15:59:15.938Z,40.53
2018-05-09T16:01:49.290Z,40.69
2018-05-09T16:04:22.565Z,40.10
2018-05-09T16:06:55.901Z,40.13
2018-05-09T16:09:30.006Z,40.11
2018-05-09T16:12:03.395Z,39.21
2018-05-09T16:15:02.112Z,36.85
2018-05-09T16:17:35.743Z,36.18
2018-05-09T16:20:09.036Z,33.37
2018-05-09T16:22:44.844Z,33.56
2018-05-09T16:25:18.569Z,33.41
2018-05-09T16:27:55.872Z,32.17
2018-05-09T16:30:29.272Z,32.19
2018-05-09T16:33:07.522Z,30.94
2018-05-09T16:35:40.800Z,30.20
2018-05-09T16:38:14.059Z,30.31
2018-05-09T16:40:48.103Z,28.44
2018-05-09T16:43:21.352Z,27.78
2018-05-09T16:45:55.393Z,28.59
2018-05-09T16:48:28.651Z,28.34
2018-05-09T16:51:01.928Z,27.84
2018-05-09T16:53:35.188Z,28.25
2018-05-09T16:56:08.567Z,28.67
2018-05-09T16:58:41.831Z,28.98
2018-05-09T17:01:15.118Z,29.25
2018-05-09T17:03:48.446Z,29.30
2018-05-09T17:06:21.733Z,29.30
2018-05-09T17:08:54.993Z,29.23
2018-05-09T17:11:28.384Z,29.07
2018-05-09T17:14:01.656Z,28.58
2018-05-09T17:16:34.931Z,28.63
2018-05-09T17:19:08.246Z,28.98
2018-05-09T17:22:04.789Z,29.19
2018-05-09T17:24:38.104Z,29.31
2018-05-09T17:27:11.377Z,29.24
2018-05-09T17:29:44.659Z,29.37
2018-05-09T17:32:18.090Z,29.24
2018-05-09T17:34:51.340Z,29.45
2018-05-09T17:37:25.505Z,29.65
2018-05-09T17:39:58.761Z,29.92
2018-05-09T17:42:32.058Z,29.70
2018-05-09T17:45:05.306Z,30.44
2018-05-09T17:47:39.345Z,30.01
2018-05-09T17:50:12.617Z,29.87
2018-05-09T17:52:46.652Z,30.07
2018-05-09T17:55:19.929Z,30.23
2018-05-09T17:57:53.967Z,30.19
2018-05-09T18:00:27.921Z,30.16
2018-05-09T18:03:01.235Z,30.37
2018-05-09T18:05:34.541Z,30.80
2018-05-09T18:08:08.692Z,31.29
2018-05-09T18:10:41.949Z,32.03
2018-05-09T18:13:16.007Z,32.74
2018-05-09T18:15:49.260Z,33.02
2018-05-09T18:18:22.861Z,33.72
2018-05-09T18:20:56.121Z,34.29
2018-05-09T18:23:29.449Z,34.58
2018-05-09T18:26:03.473Z,35.08
2018-05-09T18:28:36.745Z,35.43
2018-05-09T18:31:10.773Z,35.79
2018-05-09T18:33:44.060Z,36.44
2018-05-09T18:36:17.320Z,36.78
2018-05-09T18:38:50.598Z,36.69
2018-05-09T18:41:23.867Z,37.19
2018-05-09T18:43:57.245Z,37.50
2018-05-09T18:46:30.504Z,37.52
2018-05-09T18:49:03.799Z,37.60
2018-05-09T18:51:37.061Z,37.83
2018-05-09T18:54:11.293Z,38.36
2018-05-09T18:56:44.516Z,38.62
2018-05-09T18:59:17.809Z,38.89
2018-05-09T19:01:51.827Z,38.89
2018-05-09T19:04:25.247Z,39.07
2018-05-09T19:06:59.236Z,39.28
2018-05-09T19:09:33.293Z,39.76
2018-05-09T19:12:06.703Z,39.90
2018-05-09T19:14:40.055Z,39.82
2018-05-09T19:17:14.065Z,39.65
2018-05-09T19:19:47.333Z,39.62
2018-05-09T19:22:21.356Z,39.62
2018-05-09T19:24:55.406Z,39.24
2018-05-09T19:27:28.652Z,39.49
2018-05-09T19:30:01.946Z,39.85
2018-05-09T19:32:36.044Z,40.20
2018-05-09T19:35:09.360Z,40.41
2018-05-09T19:37:43.392Z,40.62
2018-05-09T19:40:16.759Z,40.78
2018-05-09T19:42:50.013Z,41.02
2018-05-09T19:45:23.285Z,41.14
2018-05-09T19:47:56.558Z,41.45
2018-05-09T19:50:29.816Z,41.44
2018-05-09T19:53:03.067Z,41.48
2018-05-09T19:55:36.377Z,41.39
2018-05-09T19:58:09.643Z,41.62
2018-05-09T20:00:42.915Z,41.86
2018-05-09T20:03:16.944Z,42.23
2018-05-09T20:05:50.220Z,42.53
2018-05-09T20:08:23.473Z,42.70
2018-05-09T20:10:56.743Z,42.83
2018-05-09T20:13:30.016Z,42.90
2018-05-09T20:16:03.300Z,43.47
2018-05-09T20:18:36.564Z,43.59
2018-05-09T20:21:09.839Z,43.62
2018-05-09T20:23:43.177Z,43.78
2018-05-09T20:26:16.384Z,44.23
2018-05-09T20:28:55.991Z,44.45
2018-05-09T20:31:52.636Z,44.67
2018-05-09T20:34:25.894Z,45.13
2018-05-09T20:36:59.169Z,45.25
2018-05-09T20:39:32.427Z,45.25
2018-05-09T20:42:05.695Z,45.51
2018-05-09T20:44:38.968Z,45.65
2018-05-09T20:47:12.351Z,46.00
2018-05-09T20:49:45.616Z,46.16
2018-05-09T20:52:19.653Z,46.38
2018-05-09T20:54:52.923Z,46.11
2018-05-09T20:57:26.961Z,46.47
2018-05-09T21:00:00.232Z,46.60
2018-05-09T21:02:33.637Z,46.92
2018-05-09T21:05:06.900Z,47.09
2018-05-09T21:07:55.961Z,47.21
2018-05-09T21:10:29.228Z,47.57
2018-05-09T21:13:02.500Z,47.51
2018-05-09T21:15:35.817Z,47.48
2018-05-09T21:18:09.061Z,47.35
2018-05-09T21:20:43.076Z,47.25
2018-05-09T21:23:17.120Z,47.44
2018-05-09T21:25:50.403Z,47.71
2018-05-09T21:28:23.676Z,47.80
2018-05-09T21:30:57.704Z,48.37
2018-05-09T21:33:30.981Z,48.65
2018-05-09T21:36:05.022Z,49.61
2018-05-09T21:38:38.295Z,50.31
2018-05-09T21:41:11.558Z,50.84
2018-05-09T21:43:44.831Z,50.48
2018-05-09T21:46:18.122Z,49.90
2018-05-09T21:48:51.400Z,49.98
2018-05-09T21:51:24.684Z,49.67
2018-05-09T21:53:57.952Z,49.76
2018-05-09T21:56:31.971Z,49.64
2018-05-09T21:59:05.262Z,49.73
2018-05-09T22:01:39.278Z,49.51
2018-05-09T22:04:12.565Z,49.50
2018-05-09T22:06:46.591Z,49.27
2018-05-09T22:09:19.868Z,49.57
2018-05-09T22:11:53.148Z,49.46
2018-05-09T22:14:26.667Z,49.47
2018-05-09T22:16:59.987Z,49.39
2018-05-09T22:19:33.311Z,49.25
2018-05-09T22:22:06.564Z,49.79
2018-05-09T22:24:39.843Z,49.43
2018-05-09T22:27:13.860Z,49.21
2018-05-09T22:29:47.176Z,49.45
2018-05-09T22:32:20.429Z,49.50
2018-05-09T22:34:54.581Z,49.60
2018-05-09T22:37:27.853Z,49.65
2018-05-09T22:40:01.134Z,49.77
2018-05-09T22:42:35.149Z,49.80
2018-05-09T22:45:08.437Z,49.95
2018-05-09T22:47:41.701Z,49.84
2018-05-09T22:50:14.973Z,49.99
2018-05-09T22:52:48.227Z,49.90
2018-05-09T22:55:21.501Z,50.34
2018-05-09T22:57:54.752Z,50.39
2018-05-09T23:00:28.140Z,50.83
2018-05-09T23:03:01.401Z,51.17
2018-05-09T23:05:34.679Z,51.78
2018-05-09T23:08:07.940Z,52.10
2018-05-09T23:10:41.361Z,52.09
2018-05-09T23:13:14.533Z,52.33
